Paintersville, California
Current Conditions -  °F | °C
As of 3:53 PM on Wednesday 22 Oct 2014 (Local Time) from KSAC Reporting Station
Clear Clear  
Wind Chill: 75°   Ceiling: Unl
Heat Index: 75°   Visibility: 10mi
Dew Point: 41°   Wind: 0mph
Humidity: 29%   Direction: NA
Pressure: 30"   Gusts: NA
Location:  38.3168°N, 121.532°W
Report Text: KSAC 222253Z AUTO 00000KT 10SM CLR 24/05 A3000 RMK AO2 SLP159 T02390050 TSNO
Loading
Personal Weather Stations






























Interactive Weather Map
Tropical Storm Tracking
New forecast layout! Learn more

10-Day Weather Forecast

Advertisements
Track Severe Weather on mobile